Time;durP1;ratioP1;P1;durP2;ratioP2;P2;SDS_P1;SDS_P2;PMS_P1;PMS_P2;Temp;Humidity;BMP_temperature;BMP_pressure;BME280_temperature;BME280_humidity;BME280_pressure;Samples;Min_cycle;Max_cycle;Signal;HPM_P1;HPM_P2
2021/01/30 00:01:15;;;;;;;4.20;1.23;;;11.30;90.30;;;;;;5089179;28;20620;-53
2021/01/30 00:03:42;;;;;;;4.30;1.00;;;11.10;90.50;;;;;;5088206;28;21040;-54
2021/01/30 00:06:09;;;;;;;2.03;0.60;;;11.00;90.90;;;;;;5089395;28;21055;-54
2021/01/30 00:08:36;;;;;;;1.37;1.10;;;10.90;91.10;;;;;;5089479;28;20628;-54
2021/01/30 00:11:03;;;;;;;0.93;0.87;;;10.80;91.20;;;;;;5089686;28;20658;-55
2021/01/30 00:13:29;;;;;;;4.90;0.97;;;10.80;91.40;;;;;;5089306;28;20705;-52
2021/01/30 00:15:57;;;;;;;0.70;0.70;;;10.80;91.50;;;;;;5087150;28;20683;-54
2021/01/30 00:18:24;;;;;;;0.90;0.80;;;10.80;91.60;;;;;;5081705;28;20617;-54
2021/01/30 00:20:50;;;;;;;2.73;1.37;;;10.80;91.50;;;;;;5069510;28;20621;-54
2021/01/30 00:23:17;;;;;;;1.73;0.80;;;10.70;91.70;;;;;;5068458;28;20679;-53
2021/01/30 00:25:44;;;;;;;4.47;0.83;;;10.70;91.80;;;;;;5081383;28;20660;-52
2021/01/30 00:28:11;;;;;;;1.03;0.97;;;10.60;91.70;;;;;;5085897;28;20624;-53
2021/01/30 00:30:38;;;;;;;2.73;1.13;;;10.60;91.80;;;;;;5089064;28;20662;-54
2021/01/30 00:33:06;;;;;;;2.50;1.30;;;10.60;91.80;;;;;;5089145;28;20710;-54
2021/01/30 00:35:33;;;;;;;5.13;1.70;;;10.60;92.00;;;;;;5075317;28;21254;-53
2021/01/30 00:38:00;;;;;;;3.87;1.40;;;10.60;91.80;;;;;;5069148;28;20982;-53
2021/01/30 00:40:27;;;;;;;5.20;1.37;;;10.50;91.60;;;;;;5069817;28;20636;-54
2021/01/30 00:42:54;;;;;;;2.43;1.13;;;10.50;91.70;;;;;;5089473;28;20672;-52
2021/01/30 00:45:22;;;;;;;2.30;1.47;;;10.50;91.70;;;;;;5089327;28;20682;-54
2021/01/30 00:47:49;;;;;;;1.50;1.40;;;10.50;91.90;;;;;;5086075;28;21254;-54
2021/01/30 00:50:16;;;;;;;3.60;1.20;;;10.50;91.80;;;;;;5069298;28;20630;-53
2021/01/30 00:52:43;;;;;;;2.33;1.40;;;10.50;91.70;;;;;;5069501;28;20629;-54
2021/01/30 00:55:11;;;;;;;1.80;0.90;;;10.50;91.70;;;;;;5069350;28;20658;-54
2021/01/30 00:57:38;;;;;;;1.67;1.40;;;10.40;91.70;;;;;;5069229;28;20686;-54
2021/01/30 01:00:08;;;;;;;4.13;1.60;;;10.50;91.80;;;;;;5088251;28;20674;-52
2021/01/30 01:02:36;;;;;;;6.80;2.00;;;10.50;91.70;;;;;;5089494;28;20623;-54
2021/01/30 01:05:04;;;;;;;3.37;1.30;;;10.40;91.60;;;;;;5087252;28;20648;-54
2021/01/30 01:07:31;;;;;;;1.37;1.10;;;10.40;91.50;;;;;;5092342;28;20689;-52
2021/01/30 01:09:58;;;;;;;2.77;1.57;;;10.40;91.70;;;;;;5093015;28;20612;-54
2021/01/30 01:12:25;;;;;;;4.97;1.93;;;10.30;91.30;;;;;;5091098;28;20671;-54
2021/01/30 01:14:52;;;;;;;2.30;1.03;;;10.30;91.40;;;;;;5087693;28;20620;-54
2021/01/30 01:17:18;;;;;;;6.13;1.97;;;10.30;91.60;;;;;;5088295;28;20689;-55
2021/01/30 01:19:45;;;;;;;3.40;1.07;;;10.30;91.50;;;;;;5090765;28;21179;-54
2021/01/30 01:22:12;;;;;;;1.57;1.43;;;10.30;91.40;;;;;;5092286;28;21028;-54
2021/01/30 01:24:39;;;;;;;2.57;1.50;;;10.20;91.30;;;;;;5092397;28;21245;-55
2021/01/30 01:27:06;;;;;;;3.73;1.40;;;10.20;91.20;;;;;;5092406;28;20727;-54
2021/01/30 01:29:33;;;;;;;2.47;1.40;;;10.20;91.30;;;;;;5092614;28;20681;-55
2021/01/30 01:31:59;;;;;;;1.73;1.37;;;10.20;91.20;;;;;;5092730;28;20624;-55
2021/01/30 01:34:27;;;;;;;3.33;1.30;;;10.30;91.40;;;;;;5092614;28;20970;-54
2021/01/30 01:36:55;;;;;;;1.73;1.10;;;10.30;91.00;;;;;;5086612;28;20654;-53
2021/01/30 01:39:22;;;;;;;9.47;1.67;;;10.30;91.10;;;;;;5075046;28;20721;-53
2021/01/30 01:41:59;;;;;;;6.03;1.40;;;10.20;91.00;;;;;;5092372;28;21224;-53
2021/01/30 01:44:26;;;;;;;1.97;1.17;;;10.20;91.20;;;;;;5092313;28;20675;-53
2021/01/30 01:46:53;;;;;;;3.07;1.37;;;10.20;91.10;;;;;;5091899;28;20633;-51
2021/01/30 01:49:22;;;;;;;3.20;1.20;;;10.20;91.10;;;;;;5092552;28;20632;-54
2021/01/30 01:51:49;;;;;;;2.00;1.07;;;10.20;91.00;;;;;;5091858;28;20624;-53
2021/01/30 01:54:18;;;;;;;2.00;1.30;;;10.20;91.30;;;;;;5088225;28;20722;-54
2021/01/30 01:56:45;;;;;;;0.70;0.70;;;10.20;91.10;;;;;;5087459;28;20616;-54
2021/01/30 01:59:15;;;;;;;1.10;0.93;;;10.20;91.30;;;;;;5091952;28;20689;-56
2021/01/30 02:01:41;;;;;;;2.63;1.57;;;10.20;91.20;;;;;;5092613;28;20628;-54
2021/01/30 02:04:09;;;;;;;1.90;1.20;;;10.20;91.30;;;;;;5091055;28;20672;-54
2021/01/30 02:06:37;;;;;;;3.40;1.37;;;10.20;91.40;;;;;;5092540;28;20685;-52
2021/01/30 02:09:07;;;;;;;2.40;1.10;;;10.20;91.40;;;;;;5091663;28;20655;-54
2021/01/30 02:11:34;;;;;;;2.80;0.90;;;10.20;91.50;;;;;;5092215;28;21145;-54
2021/01/30 02:14:01;;;;;;;5.30;2.43;;;10.20;91.50;;;;;;5091642;28;20655;-53
2021/01/30 02:16:35;;;;;;;5.93;1.13;;;10.20;91.50;;;;;;5091484;28;20628;-55
2021/01/30 02:19:25;;;;;;;1.50;1.20;;;10.20;91.70;;;;;;5091816;28;20654;-54
2021/01/30 02:22:09;;;;;;;5.00;0.80;;;10.30;91.90;;;;;;5091824;28;20685;-54
2021/01/30 02:25:06;;;;;;;3.27;1.70;;;10.20;91.80;;;;;;5091414;28;20717;-54
2021/01/30 02:27:50;;;;;;;3.27;1.53;;;10.20;92.20;;;;;;5047571;28;20772;-55
2021/01/30 02:30:40;;;;;;;3.63;1.20;;;10.30;92.30;;;;;;5091376;28;21024;-55
2021/01/30 02:33:25;;;;;;;2.37;1.30;;;10.30;92.50;;;;;;5091368;28;20706;-54
2021/01/30 02:36:03;;;;;;;2.80;1.83;;;10.20;92.60;;;;;;5091792;28;20616;-53
2021/01/30 02:38:30;;;;;;;2.70;1.50;;;10.20;93.00;;;;;;5091031;28;20628;-55
2021/01/30 02:40:59;;;;;;;2.60;1.47;;;10.20;92.80;;;;;;5091345;28;21335;-54
2021/01/30 02:43:28;;;;;;;6.43;1.10;;;10.20;92.90;;;;;;5091040;28;20652;-55
2021/01/30 02:45:56;;;;;;;2.83;0.93;;;10.20;92.90;;;;;;5090659;28;20674;-54
2021/01/30 02:48:25;;;;;;;2.03;1.13;;;10.20;93.00;;;;;;5091339;28;20650;-52
2021/01/30 02:50:54;;;;;;;6.80;1.70;;;10.10;93.40;;;;;;5091226;28;20697;-54
2021/01/30 02:53:23;;;;;;;1.97;1.23;;;10.00;93.30;;;;;;5090601;28;21277;-54
2021/01/30 02:55:52;;;;;;;2.30;1.27;;;10.00;93.90;;;;;;5091170;28;20625;-54
2021/01/30 02:58:18;;;;;;;2.70;1.23;;;10.10;93.80;;;;;;5090668;28;20628;-54
2021/01/30 03:00:45;;;;;;;4.20;1.73;;;10.10;93.70;;;;;;5090804;28;20632;-52
2021/01/30 03:03:12;;;;;;;1.90;1.30;;;10.00;93.70;;;;;;5091119;28;20726;-54
2021/01/30 03:05:39;;;;;;;2.60;1.70;;;10.00;93.80;;;;;;5090680;28;20713;-53
2021/01/30 03:08:19;;;;;;;2.90;1.60;;;10.00;93.80;;;;;;5090493;28;21051;-53
2021/01/30 03:10:51;;;;;;;2.10;1.43;;;10.10;94.00;;;;;;5090166;28;20679;-53
2021/01/30 03:13:19;;;;;;;2.20;1.40;;;10.10;93.80;;;;;;5090937;28;20694;-53
2021/01/30 03:15:48;;;;;;;1.93;1.10;;;10.20;93.80;;;;;;5091041;28;20617;-54
2021/01/30 03:18:17;;;;;;;3.50;1.30;;;10.20;93.70;;;;;;5090663;28;21021;-55
2021/01/30 03:20:44;;;;;;;8.70;2.03;;;10.30;93.70;;;;;;5073044;28;20682;-53
2021/01/30 03:23:11;;;;;;;2.40;1.17;;;10.20;93.60;;;;;;5090368;28;20644;-55
2021/01/30 03:25:39;;;;;;;3.20;1.83;;;10.20;93.60;;;;;;5089325;28;21163;-55
2021/01/30 03:28:07;;;;;;;1.10;1.00;;;10.20;93.70;;;;;;5072617;28;20654;-55
2021/01/30 03:30:33;;;;;;;6.00;1.33;;;10.20;93.70;;;;;;5091785;28;20674;-55
2021/01/30 03:33:01;;;;;;;3.13;1.60;;;10.20;94.00;;;;;;5087822;28;20709;-53
2021/01/30 03:35:27;;;;;;;5.83;1.43;;;10.20;93.90;;;;;;5087416;28;21108;-54
2021/01/30 03:37:54;;;;;;;4.00;1.50;;;10.20;94.00;;;;;;5086695;28;20647;-53
2021/01/30 03:40:22;;;;;;;2.87;1.23;;;10.20;94.00;;;;;;5085665;28;20686;-55
2021/01/30 03:42:48;;;;;;;1.63;0.80;;;10.20;94.10;;;;;;5091013;28;20664;-55
2021/01/30 03:45:18;;;;;;;2.60;1.30;;;10.20;94.20;;;;;;5091040;28;20648;-51
2021/01/30 03:47:45;;;;;;;3.77;1.23;;;10.10;94.40;;;;;;5090169;28;20624;-53
2021/01/30 03:50:12;;;;;;;6.83;2.03;;;10.10;94.70;;;;;;5090962;28;20616;-53
2021/01/30 03:52:39;;;;;;;1.47;1.00;;;10.00;95.10;;;;;;5090142;28;20682;-54
2021/01/30 03:55:07;;;;;;;1.93;1.40;;;10.00;95.20;;;;;;5090910;28;20666;-54
2021/01/30 03:57:34;;;;;;;1.90;0.83;;;10.00;95.40;;;;;;5090325;28;20628;-54
2021/01/30 04:00:00;;;;;;;0.90;0.80;;;10.00;95.70;;;;;;5090569;28;20674;-54
2021/01/30 04:02:28;;;;;;;3.10;1.33;;;9.90;96.10;;;;;;5090506;28;20666;-53
2021/01/30 04:04:55;;;;;;;4.93;1.30;;;9.90;96.30;;;;;;5089880;28;20716;-53
2021/01/30 04:07:21;;;;;;;1.73;1.10;;;9.90;96.30;;;;;;5090473;28;20628;-53
2021/01/30 04:09:49;;;;;;;1.37;0.97;;;9.90;96.40;;;;;;5088157;28;20628;-54
2021/01/30 04:12:15;;;;;;;5.37;1.20;;;10.00;95.90;;;;;;5090631;28;20628;-53
2021/01/30 04:14:42;;;;;;;0.80;0.77;;;10.00;96.00;;;;;;5090087;28;20660;-54
2021/01/30 04:17:09;;;;;;;1.20;0.80;;;10.00;95.90;;;;;;5089960;28;20633;-54
2021/01/30 04:19:37;;;;;;;1.43;0.90;;;10.00;96.00;;;;;;5090315;28;20620;-53
2021/01/30 04:22:04;;;;;;;1.80;0.60;;;10.00;96.00;;;;;;5090270;28;20624;-54
2021/01/30 04:24:31;;;;;;;1.87;1.30;;;10.10;96.10;;;;;;5090061;28;20678;-52
2021/01/30 04:26:57;;;;;;;2.43;1.67;;;10.00;96.10;;;;;;5090457;28;21248;-54
2021/01/30 04:29:24;;;;;;;2.07;1.03;;;10.00;96.20;;;;;;5089674;28;20736;-54
2021/01/30 04:31:54;;;;;;;1.93;1.33;;;10.00;96.20;;;;;;5090316;28;20628;-53
2021/01/30 04:34:20;;;;;;;1.90;0.93;;;10.10;96.30;;;;;;5089716;28;20655;-53
2021/01/30 04:36:48;;;;;;;1.83;1.30;;;10.00;96.30;;;;;;5089726;28;21272;-53
2021/01/30 04:39:15;;;;;;;2.10;0.90;;;10.00;96.40;;;;;;5091926;28;20631;-54
2021/01/30 04:41:49;;;;;;;2.10;1.03;;;10.00;96.50;;;;;;5092813;28;20666;-52
2021/01/30 04:44:18;;;;;;;1.90;1.23;;;10.00;96.70;;;;;;5105629;22;20680;-59
2021/01/30 04:46:56;;;;;;;3.10;0.80;;;9.90;97.40;;;;;;5074752;28;20657;-59
2021/01/30 04:49:27;;;;;;;2.20;1.00;;;9.90;97.60;;;;;;5075053;28;20625;-59
2021/01/30 04:51:57;;;;;;;1.00;0.80;;;9.90;97.60;;;;;;5074845;28;20690;-59
2021/01/30 04:54:31;;;;;;;2.27;1.10;;;10.00;97.10;;;;;;5088384;28;20660;-59
2021/01/30 04:57:44;;;;;;;1.57;1.20;;;10.00;97.10;;;;;;5094683;28;20624;-59
2021/01/30 05:00:42;;;;;;;2.03;1.23;;;10.00;97.20;;;;;;4993430;28;20994;-59
2021/01/30 05:03:17;;;;;;;2.27;0.90;;;10.00;97.20;;;;;;4992280;28;20701;-59
2021/01/30 05:05:45;;;;;;;1.97;1.10;;;9.90;97.80;;;;;;5074517;28;21046;-59
2021/01/30 05:08:15;;;;;;;6.30;1.10;;;9.90;97.90;;;;;;5094355;28;20624;-60
2021/01/30 05:10:42;;;;;;;2.10;1.33;;;10.00;97.40;;;;;;5094044;28;20643;-59
2021/01/30 05:13:11;;;;;;;2.47;1.27;;;10.00;97.30;;;;;;5093997;28;21287;-60
2021/01/30 05:15:39;;;;;;;2.03;1.33;;;10.10;97.30;;;;;;5094682;28;20666;-62
2021/01/30 05:18:09;;;;;;;1.40;1.30;;;10.10;97.30;;;;;;5093783;28;20677;-60
2021/01/30 05:20:37;;;;;;;6.60;1.50;;;10.20;97.20;;;;;;5094486;28;20673;-61
2021/01/30 05:23:04;;;;;;;2.13;1.50;;;10.30;97.10;;;;;;5093867;28;20666;-59
2021/01/30 05:25:32;;;;;;;3.13;1.37;;;10.30;97.00;;;;;;5094020;28;21186;-60
2021/01/30 05:28:03;;;;;;;1.43;1.10;;;10.30;97.00;;;;;;5093796;28;20624;-60
2021/01/30 05:30:35;;;;;;;2.40;2.07;;;10.30;96.90;;;;;;5094005;28;20624;-59
2021/01/30 05:33:16;;;;;;;4.57;2.30;;;10.30;97.00;;;;;;5094492;28;20963;-60
2021/01/30 05:35:47;;;;;;;1.83;0.90;;;10.20;97.10;;;;;;5094101;28;20655;-60
2021/01/30 05:38:19;;;;;;;3.40;1.40;;;10.20;97.00;;;;;;5093760;28;20659;-60
2021/01/30 05:40:48;;;;;;;4.20;1.23;;;10.20;97.10;;;;;;5092499;28;20685;-59
2021/01/30 05:43:19;;;;;;;2.60;1.10;;;10.20;97.00;;;;;;5092879;28;20722;-59
2021/01/30 05:45:49;;;;;;;1.97;1.37;;;10.20;97.00;;;;;;5093305;28;20652;-59
2021/01/30 05:48:17;;;;;;;6.10;1.50;;;10.10;97.10;;;;;;5093624;28;20624;-61
2021/01/30 05:50:47;;;;;;;1.30;1.20;;;10.10;97.10;;;;;;5092897;28;20628;-60
2021/01/30 05:53:15;;;;;;;3.90;1.67;;;10.10;97.30;;;;;;5093153;28;21212;-59
2021/01/30 05:55:42;;;;;;;4.97;1.60;;;10.10;97.30;;;;;;5093894;28;20673;-59
2021/01/30 05:58:11;;;;;;;3.73;1.20;;;10.10;97.30;;;;;;5093133;28;20624;-62
2021/01/30 06:00:38;;;;;;;3.90;1.80;;;10.20;97.40;;;;;;5093347;28;20689;-61
2021/01/30 06:03:07;;;;;;;1.60;1.40;;;10.10;97.40;;;;;;5093002;28;20631;-60
2021/01/30 06:05:35;;;;;;;2.60;1.70;;;10.10;97.50;;;;;;5093611;28;20653;-60
2021/01/30 06:08:19;;;;;;;4.17;2.03;;;10.20;97.80;;;;;;5092886;28;20659;-59
2021/01/30 06:10:46;;;;;;;8.13;1.57;;;10.20;97.50;;;;;;5092488;28;20632;-60
2021/01/30 06:13:16;;;;;;;3.73;2.13;;;10.10;97.50;;;;;;5092789;28;20644;-60
2021/01/30 06:15:46;;;;;;;3.50;2.33;;;10.10;97.80;;;;;;5089413;28;20983;-59
2021/01/30 06:18:29;;;;;;;5.60;2.90;;;10.10;98.00;;;;;;5092975;28;21012;-60
2021/01/30 06:20:57;;;;;;;2.83;2.17;;;10.10;98.20;;;;;;5081791;28;20625;-60
2021/01/30 06:23:24;;;;;;;10.57;2.87;;;10.00;98.20;;;;;;5072564;28;20657;-62
2021/01/30 06:25:51;;;;;;;3.70;1.80;;;10.00;98.40;;;;;;5072783;28;20691;-63
2021/01/30 06:28:22;;;;;;;3.97;1.57;;;9.90;99.00;;;;;;5072864;28;20679;-61
2021/01/30 06:30:48;;;;;;;6.63;2.53;;;9.90;99.20;;;;;;5072758;28;20632;-61
2021/01/30 06:33:22;;;;;;;3.93;2.00;;;9.90;99.40;;;;;;5084661;28;20656;-61
2021/01/30 06:35:49;;;;;;;3.43;2.50;;;9.80;99.50;;;;;;5092509;28;20673;-61
2021/01/30 06:38:18;;;;;;;6.50;3.77;;;9.80;99.60;;;;;;5092471;28;20628;-62
2021/01/30 06:40:53;;;;;;;5.00;2.70;;;9.80;99.80;;;;;;5092576;28;20633;-61
2021/01/30 06:43:27;;;;;;;4.90;2.23;;;9.70;99.80;;;;;;5092755;28;20660;-59
2021/01/30 06:46:02;;;;;;;6.80;2.50;;;9.70;99.90;;;;;;5091343;28;20655;-59
2021/01/30 06:48:30;;;;;;;6.00;3.73;;;9.70;99.90;;;;;;5092230;28;20632;-60
2021/01/30 06:50:57;;;;;;;4.30;2.70;;;9.80;99.90;;;;;;5092326;28;20616;-59
2021/01/30 06:53:25;;;;;;;7.53;3.13;;;9.90;99.90;;;;;;5093020;28;20648;-59
2021/01/30 06:55:52;;;;;;;5.10;3.30;;;9.90;99.90;;;;;;5092269;28;21183;-59
2021/01/30 06:58:25;;;;;;;11.23;3.27;;;10.00;99.40;;;;;;5085710;28;20804;-60
2021/01/30 07:00:54;;;;;;;8.53;3.67;;;10.00;99.20;;;;;;5082981;28;20618;-59
2021/01/30 07:03:25;;;;;;;11.37;4.50;;;10.00;99.00;;;;;;5071642;28;20714;-61
2021/01/30 07:06:01;;;;;;;5.37;3.93;;;10.00;99.00;;;;;;5087982;28;20641;-59
2021/01/30 07:08:59;;;;;;;15.33;4.40;;;10.00;99.00;;;;;;5091835;28;20620;-58
2021/01/30 07:11:40;;;;;;;13.97;4.30;;;10.00;98.80;;;;;;5085900;28;20658;-60
2021/01/30 07:14:11;;;;;;;10.93;4.23;;;9.90;99.20;;;;;;5084377;28;20707;-58
2021/01/30 07:16:44;;;;;;;9.63;4.30;;;9.80;99.30;;;;;;5092442;28;20609;-58
2021/01/30 07:19:17;;;;;;;7.63;3.80;;;9.80;99.30;;;;;;5078546;28;21176;-59
2021/01/30 07:21:46;;;;;;;22.33;4.57;;;9.80;99.30;;;;;;5074220;28;20673;-59
2021/01/30 07:24:19;;;;;;;10.43;5.00;;;9.80;99.10;;;;;;5079794;28;20651;-58
2021/01/30 07:26:49;;;;;;;12.57;5.20;;;9.90;99.10;;;;;;5082119;28;20649;-59
2021/01/30 07:29:27;;;;;;;13.97;5.40;;;9.90;99.10;;;;;;5089105;28;20655;-58
2021/01/30 07:31:56;;;;;;;16.53;6.77;;;9.90;99.00;;;;;;5090081;28;20693;-59
2021/01/30 07:34:27;;;;;;;37.80;6.13;;;10.00;98.30;;;;;;5081316;28;20648;-59
2021/01/30 07:36:56;;;;;;;20.20;5.17;;;10.00;98.10;;;;;;5073012;28;21015;-60
2021/01/30 07:39:27;;;;;;;12.23;4.00;;;10.00;98.00;;;;;;5076753;28;20776;-60
2021/01/30 07:41:56;;;;;;;14.40;5.47;;;10.10;97.90;;;;;;5086870;28;20656;-59
2021/01/30 07:44:26;;;;;;;15.97;5.13;;;10.00;97.70;;;;;;5090966;28;21068;-61
2021/01/30 07:47:11;;;;;;;9.00;3.80;;;10.10;97.60;;;;;;5090888;28;20685;-59
2021/01/30 07:49:37;;;;;;;16.53;4.67;;;10.10;97.40;;;;;;5073214;28;20632;-58
2021/01/30 07:52:05;;;;;;;11.57;4.60;;;10.00;97.10;;;;;;5091279;28;20624;-58
2021/01/30 07:54:32;;;;;;;13.87;4.43;;;10.00;97.00;;;;;;5091758;28;21050;-58
2021/01/30 07:57:09;;;;;;;18.23;5.10;;;10.00;97.30;;;;;;5091278;28;20624;-58
2021/01/30 07:59:40;;;;;;;9.57;3.80;;;10.00;97.10;;;;;;5091527;28;20673;-59
2021/01/30 08:02:34;;;;;;;8.23;4.20;;;10.00;96.70;;;;;;5091351;28;20963;-59
2021/01/30 08:05:13;;;;;;;14.20;5.60;;;10.00;96.80;;;;;;5091145;28;20656;-59
2021/01/30 08:07:46;;;;;;;10.67;4.33;;;10.00;96.60;;;;;;5081868;28;21254;-61
2021/01/30 08:10:18;;;;;;;13.03;4.97;;;10.00;96.50;;;;;;5071095;28;20625;-59
2021/01/30 08:12:55;;;;;;;12.73;5.30;;;10.00;96.50;;;;;;5070901;28;20632;-59
2021/01/30 08:15:24;;;;;;;9.83;4.67;;;10.00;96.60;;;;;;5089328;28;20669;-58
2021/01/30 08:18:03;;;;;;;8.80;3.60;;;10.00;96.70;;;;;;5095179;28;21163;-59
2021/01/30 08:20:35;;;;;;;15.47;5.07;;;10.10;96.60;;;;;;5095039;28;20624;-59
2021/01/30 08:23:05;;;;;;;11.00;4.17;;;10.20;96.50;;;;;;5094972;28;20701;-61
2021/01/30 08:25:35;;;;;;;17.70;5.57;;;10.20;96.40;;;;;;5093554;28;20620;-59
2021/01/30 08:28:06;;;;;;;10.80;4.50;;;10.20;96.10;;;;;;5076997;28;20677;-61
2021/01/30 08:30:34;;;;;;;15.03;4.83;;;10.30;96.10;;;;;;5094730;28;20685;-60
2021/01/30 08:33:03;;;;;;;10.07;4.90;;;10.30;96.40;;;;;;5094583;28;20628;-58
2021/01/30 08:35:51;;;;;;;16.03;4.93;;;10.30;96.00;;;;;;5094906;28;20617;-59
2021/01/30 08:38:35;;;;;;;10.10;3.97;;;10.40;95.90;;;;;;5076263;28;20662;-58
2021/01/30 08:41:12;;;;;;;15.73;4.33;;;10.30;95.60;;;;;;5074622;28;20617;-59
2021/01/30 08:43:40;;;;;;;12.40;4.80;;;10.30;95.70;;;;;;5073757;28;20664;-61
2021/01/30 08:46:28;;;;;;;8.83;4.10;;;10.30;95.70;;;;;;5074742;28;20664;-60
2021/01/30 08:49:09;;;;;;;12.20;4.37;;;10.30;95.80;;;;;;5073858;28;21167;-58
2021/01/30 08:51:36;;;;;;;8.77;3.83;;;10.30;95.70;;;;;;5074601;28;20667;-58
2021/01/30 08:54:26;;;;;;;10.10;5.10;;;10.40;95.70;;;;;;5074139;28;21004;-58
2021/01/30 08:56:53;;;;;;;16.83;5.17;;;10.40;95.70;;;;;;5056559;28;20621;-59
2021/01/30 08:59:43;;;;;;;18.40;5.27;;;10.40;95.70;;;;;;5073964;28;20663;-59
2021/01/30 09:02:11;;;;;;;9.23;3.90;;;10.40;95.70;;;;;;5074253;28;20670;-58
2021/01/30 09:04:45;;;;;;;9.73;4.90;;;10.30;95.80;;;;;;5087349;28;20769;-60
2021/01/30 09:07:33;;;;;;;16.47;3.60;;;10.30;96.10;;;;;;5093994;28;20722;-59
2021/01/30 09:10:25;;;;;;;14.07;5.07;;;10.30;96.10;;;;;;5093910;28;20632;-58
2021/01/30 09:12:54;;;;;;;13.63;4.87;;;10.20;96.20;;;;;;5087643;28;20621;-59
2021/01/30 09:15:50;;;;;;;13.40;4.90;;;10.20;96.40;;;;;;5091641;28;20673;-60
2021/01/30 09:18:20;;;;;;;6.33;4.20;;;10.20;96.50;;;;;;5083220;28;20697;-59
2021/01/30 09:20:52;;;;;;;7.90;4.27;;;10.30;96.70;;;;;;5085235;28;20697;-57
2021/01/30 09:23:22;;;;;;;11.17;5.40;;;10.30;97.30;;;;;;5086743;28;20713;-57
2021/01/30 09:25:54;;;;;;;14.23;5.13;;;10.40;97.90;;;;;;5088586;28;20620;-58
2021/01/30 09:28:24;;;;;;;8.30;3.80;;;10.50;97.30;;;;;;5075619;28;20681;-57
2021/01/30 09:30:55;;;;;;;3.83;1.73;;;10.50;96.50;;;;;;5081343;28;20651;-57
2021/01/30 09:33:26;;;;;;;2.30;1.83;;;10.40;95.60;;;;;;5089019;28;20722;-60
2021/01/30 09:36:00;;;;;;;1.40;1.00;;;10.30;94.70;;;;;;5082461;28;20656;-59
2021/01/30 09:38:36;;;;;;;1.20;1.10;;;10.10;94.70;;;;;;5073653;28;21048;-59
2021/01/30 09:41:16;;;;;;;1.37;1.27;;;9.90;95.40;;;;;;5088488;28;20624;-60
2021/01/30 09:43:43;;;;;;;1.90;1.47;;;9.80;95.20;;;;;;5087732;28;20652;-60
2021/01/30 09:46:13;;;;;;;1.30;1.20;;;9.70;95.00;;;;;;5065645;28;20621;-59
2021/01/30 09:48:41;;;;;;;1.43;1.23;;;9.60;94.70;;;;;;5074277;28;20624;-59
2021/01/30 09:51:09;;;;;;;4.20;1.60;;;9.60;94.30;;;;;;5092634;28;20992;-60
2021/01/30 09:53:37;;;;;;;1.97;1.83;;;9.50;94.20;;;;;;5094294;28;20725;-59
2021/01/30 09:56:08;;;;;;;1.63;1.50;;;9.50;94.20;;;;;;5093617;28;21117;-59
2021/01/30 09:58:36;;;;;;;3.20;1.47;;;9.40;94.00;;;;;;5090164;28;20640;-60
2021/01/30 10:01:07;;;;;;;2.23;1.93;;;9.40;94.30;;;;;;5055254;28;20628;-61
2021/01/30 10:03:37;;;;;;;3.60;1.80;;;9.40;94.20;;;;;;5073066;28;20653;-61
2021/01/30 10:06:17;;;;;;;2.60;2.40;;;9.40;94.30;;;;;;5073055;28;20698;-60
2021/01/30 10:08:44;;;;;;;2.47;2.27;;;9.40;94.40;;;;;;5089625;28;20632;-59
2021/01/30 10:11:12;;;;;;;2.57;2.37;;;9.40;94.20;;;;;;5075252;28;20657;-60
2021/01/30 10:13:39;;;;;;;2.90;2.70;;;9.40;94.10;;;;;;5092765;28;20652;-59
2021/01/30 10:16:09;;;;;;;4.20;3.47;;;9.40;94.00;;;;;;5075330;28;20636;-59
2021/01/30 10:18:39;;;;;;;6.23;3.00;;;9.30;93.80;;;;;;5074558;28;20632;-58
2021/01/30 10:21:07;;;;;;;19.40;6.33;;;9.20;93.70;;;;;;5092801;28;20686;-58
2021/01/30 10:23:37;;;;;;;9.70;4.60;;;9.20;93.80;;;;;;5092800;28;20706;-59
2021/01/30 10:26:16;;;;;;;25.80;9.60;;;9.20;93.60;;;;;;5092674;28;21011;-59
2021/01/30 10:28:48;;;;;;;3.70;3.40;;;9.10;93.40;;;;;;5070379;28;21108;-58
2021/01/30 10:31:16;;;;;;;7.87;5.13;;;9.10;93.40;;;;;;5087538;28;21202;-58
2021/01/30 10:33:45;;;;;;;4.20;3.80;;;9.00;93.30;;;;;;5092420;28;20755;-58
2021/01/30 10:36:12;;;;;;;39.37;10.03;;;9.00;93.40;;;;;;5092037;28;21056;-59
2021/01/30 10:38:39;;;;;;;15.90;4.90;;;9.00;93.30;;;;;;5093010;28;20677;-59
2021/01/30 10:41:06;;;;;;;4.30;3.63;;;9.00;93.30;;;;;;5091279;28;20620;-58
2021/01/30 10:43:34;;;;;;;2.90;2.67;;;9.00;93.30;;;;;;5112549;22;20714;-52
2021/01/30 10:46:03;;;;;;;7.70;3.87;;;9.00;93.20;;;;;;5069823;28;20609;-53
2021/01/30 10:48:33;;;;;;;3.43;2.20;;;8.90;93.40;;;;;;5071337;28;20658;-53
2021/01/30 10:51:04;;;;;;;53.60;14.13;;;8.90;92.80;;;;;;5070577;28;20614;-53
2021/01/30 10:53:32;;;;;;;3.93;3.40;;;8.90;92.80;;;;;;5054343;28;20656;-52
2021/01/30 10:56:00;;;;;;;6.33;2.73;;;8.90;92.90;;;;;;5091441;28;20616;-54
2021/01/30 10:58:32;;;;;;;2.80;2.60;;;8.80;92.80;;;;;;5090653;28;20748;-53
2021/01/30 11:01:00;;;;;;;3.77;3.47;;;8.80;92.80;;;;;;5074887;28;20682;-51
2021/01/30 11:03:28;;;;;;;3.07;2.73;;;8.80;92.90;;;;;;5070447;28;20653;-53
2021/01/30 11:05:55;;;;;;;5.83;3.30;;;8.80;93.00;;;;;;5071266;28;20755;-53
2021/01/30 11:08:29;;;;;;;3.40;3.10;;;8.70;92.80;;;;;;5066320;28;21206;-53
2021/01/30 11:11:05;;;;;;;12.03;4.20;;;8.70;92.90;;;;;;5064394;28;20637;-53
2021/01/30 11:13:34;;;;;;;2.83;2.63;;;8.60;92.90;;;;;;5073114;28;20694;-53
2021/01/30 11:16:07;;;;;;;3.10;2.80;;;8.70;93.00;;;;;;5070210;28;20698;-53
2021/01/30 11:18:36;;;;;;;21.33;5.27;;;8.70;92.70;;;;;;5086131;28;20633;-54
2021/01/30 11:21:04;;;;;;;2.83;2.63;;;8.70;92.40;;;;;;5069851;28;20636;-52
2021/01/30 11:23:45;;;;;;;4.40;3.33;;;8.70;92.30;;;;;;5079060;28;20624;-53
2021/01/30 11:26:15;;;;;;;2.03;1.80;;;8.70;92.30;;;;;;5052120;28;21029;-53
2021/01/30 11:28:42;;;;;;;3.03;2.83;;;8.70;91.70;;;;;;5074447;28;20629;-51
2021/01/30 11:31:09;;;;;;;2.53;2.33;;;8.60;91.90;;;;;;5090416;28;20632;-51
2021/01/30 11:33:36;;;;;;;7.00;3.07;;;8.70;92.30;;;;;;5084646;28;21148;-50
2021/01/30 11:36:04;;;;;;;2.87;2.67;;;8.80;92.30;;;;;;5052439;28;20689;-52
2021/01/30 11:38:31;;;;;;;3.10;2.67;;;8.80;92.40;;;;;;5077678;28;20674;-51
2021/01/30 11:40:59;;;;;;;7.30;2.87;;;8.90;91.80;;;;;;5072164;28;20651;-52
2021/01/30 11:43:26;;;;;;;3.53;2.40;;;9.00;91.60;;;;;;5069929;28;20722;-51
2021/01/30 11:45:53;;;;;;;7.83;3.47;;;9.00;91.40;;;;;;5070623;28;20629;-51
2021/01/30 11:48:21;;;;;;;8.83;5.00;;;9.00;91.40;;;;;;5069311;28;20660;-52
2021/01/30 11:50:49;;;;;;;4.83;2.83;;;9.10;91.60;;;;;;5069049;28;20625;-51
2021/01/30 11:53:17;;;;;;;2.50;2.40;;;9.10;91.20;;;;;;5069875;28;20636;-52
2021/01/30 11:55:44;;;;;;;3.10;2.90;;;9.10;91.00;;;;;;5069366;28;20625;-53
2021/01/30 11:58:11;;;;;;;2.53;2.33;;;9.10;90.90;;;;;;5069829;28;20980;-53
2021/01/30 12:00:39;;;;;;;2.90;2.60;;;9.10;90.90;;;;;;5069382;28;20675;-53
2021/01/30 12:03:05;;;;;;;2.30;2.10;;;9.10;91.00;;;;;;5069320;28;20671;-52
2021/01/30 12:05:32;;;;;;;4.20;3.30;;;9.10;91.00;;;;;;5069372;28;20664;-52
2021/01/30 12:07:59;;;;;;;21.17;5.90;;;9.10;91.20;;;;;;5071619;28;20648;-52
2021/01/30 12:10:26;;;;;;;3.33;3.10;;;9.10;91.40;;;;;;5077115;28;20994;-52
2021/01/30 12:12:53;;;;;;;8.10;3.57;;;9.10;91.30;;;;;;5069076;28;20972;-52
2021/01/30 12:15:19;;;;;;;4.03;3.20;;;9.10;91.10;;;;;;5069349;28;20734;-54
2021/01/30 12:17:48;;;;;;;3.50;3.20;;;9.00;91.00;;;;;;5069146;28;20710;-53
2021/01/30 12:20:19;;;;;;;2.90;2.70;;;9.00;91.20;;;;;;5069575;28;20671;-53
2021/01/30 12:22:45;;;;;;;3.27;3.00;;;8.90;90.90;;;;;;5061684;28;20632;-55
2021/01/30 12:25:12;;;;;;;4.00;3.30;;;8.90;90.80;;;;;;5068216;28;20665;-52
2021/01/30 12:27:41;;;;;;;3.47;3.00;;;8.80;90.90;;;;;;5062124;28;20664;-52
2021/01/30 12:30:09;;;;;;;4.10;3.70;;;8.70;90.80;;;;;;5069432;28;20988;-53
2021/01/30 12:32:35;;;;;;;6.97;4.70;;;8.70;91.20;;;;;;5069554;28;20690;-54
2021/01/30 12:35:06;;;;;;;7.50;4.60;;;8.70;91.10;;;;;;5068874;28;21271;-52
2021/01/30 12:37:33;;;;;;;7.93;4.60;;;8.70;91.30;;;;;;5087463;28;20621;-52
2021/01/30 12:40:00;;;;;;;3.97;3.67;;;8.70;91.20;;;;;;5089488;28;20628;-53
2021/01/30 12:42:27;;;;;;;3.50;3.30;;;8.70;91.30;;;;;;5089316;28;20624;-52
2021/01/30 12:44:54;;;;;;;4.33;3.90;;;8.70;91.60;;;;;;5089044;28;20684;-55
2021/01/30 12:47:24;;;;;;;4.67;4.37;;;8.70;91.20;;;;;;5069274;28;20663;-53
2021/01/30 12:49:50;;;;;;;4.83;4.30;;;8.70;91.30;;;;;;5065401;28;20634;-51
2021/01/30 12:52:18;;;;;;;7.93;4.90;;;8.70;91.40;;;;;;5067713;28;20625;-51
2021/01/30 12:54:46;;;;;;;5.30;2.93;;;8.70;91.30;;;;;;5067900;28;20652;-54
2021/01/30 12:57:12;;;;;;;4.27;3.73;;;8.70;91.10;;;;;;5068442;28;20659;-53
2021/01/30 12:59:39;;;;;;;4.23;3.90;;;8.70;91.20;;;;;;5053470;28;20625;-55
2021/01/30 13:02:06;;;;;;;3.57;3.33;;;8.70;90.60;;;;;;5073178;28;20994;-53
2021/01/30 13:04:33;;;;;;;4.60;4.20;;;8.60;90.70;;;;;;5072746;28;20673;-53